Warkworth, United Kingdom
Current Conditions -  °F | °C
As of 2:50 PM on Sunday 23 Nov 2014 (Local Time) from EGQM Reporting Station
Clear Clear  
Wind Chill: 40°   Ceiling: Unl
Heat Index: 46°   Visibility: 6mi
Dew Point: 37°   Wind: 15mph
Humidity: 71%   Direction: 270°W
Pressure: 29.97"   Gusts: NA
Location:  55.35°N, 1.6°W
Report Text: EGQM 231450Z AUTO 27013KT 9999 NCD 08/03 Q1015
Loading
Personal Weather Stations






























Interactive Weather Map New forecast layout! Learn more

10-Day Weather Forecast

Advertisements
Track Severe Weather on mobile